createdAt,value
2018-08-06T00:00:41.804Z,100300.38
2018-08-06T00:03:07.860Z,100301.23
2018-08-06T00:05:33.995Z,100308.30
2018-08-06T00:08:00.216Z,100310.94
2018-08-06T00:10:26.340Z,100307.59
2018-08-06T00:12:52.435Z,100307.66
2018-08-06T00:15:18.509Z,100309.23
2018-08-06T00:17:44.616Z,100309.87
2018-08-06T00:20:10.740Z,100315.89
2018-08-06T00:22:36.814Z,100316.83
2018-08-06T00:25:02.914Z,100313.45
2018-08-06T00:27:29.032Z,100312.53
2018-08-06T00:29:55.089Z,100309.66
2018-08-06T00:32:21.664Z,100309.16
2018-08-06T00:34:47.783Z,100304.13
2018-08-06T00:37:13.861Z,100303.09
2018-08-06T00:39:40.012Z,100304.02
2018-08-06T00:42:06.731Z,100307.16
2018-08-06T00:44:32.828Z,100301.64
2018-08-06T00:46:59.013Z,100297.39
2018-08-06T00:49:25.236Z,100294.58
2018-08-06T00:51:51.332Z,100293.69
2018-08-06T00:54:17.453Z,100293.76
2018-08-06T00:56:43.602Z,100288.98
2018-08-06T00:59:09.732Z,100291.73
2018-08-06T01:01:35.928Z,100276.41
2018-08-06T01:04:02.022Z,100284.83
2018-08-06T01:06:28.101Z,100272.97
2018-08-06T01:08:54.229Z,100279.38
2018-08-06T01:11:20.999Z,100284.13
2018-08-06T01:13:47.097Z,100282.31
2018-08-06T01:16:13.259Z,100281.88
2018-08-06T01:18:39.303Z,100284.43
2018-08-06T01:21:05.406Z,100278.34
2018-08-06T01:23:31.453Z,100280.66
2018-08-06T01:25:57.558Z,100277.75
2018-08-06T01:28:23.634Z,100284.78
2018-08-06T01:30:49.678Z,100279.23
2018-08-06T01:33:15.743Z,100275.44
2018-08-06T01:35:41.794Z,100278.69
2018-08-06T01:38:07.834Z,100272.53
2018-08-06T01:40:33.953Z,100275.56
2018-08-06T01:43:00.016Z,100275.17
2018-08-06T01:45:26.077Z,100263.99
2018-08-06T01:47:52.221Z,100263.17
2018-08-06T01:50:18.319Z,100261.02
2018-08-06T01:52:44.415Z,100262.72
2018-08-06T01:55:10.473Z,100268.11
2018-08-06T01:57:36.540Z,100262.55
2018-08-06T02:00:02.641Z,100262.44
2018-08-06T02:02:28.778Z,100264.25
2018-08-06T02:04:54.956Z,100264.45
2018-08-06T02:07:21.064Z,100259.30
2018-08-06T02:09:47.174Z,100258.98
2018-08-06T02:12:13.253Z,100263.77
2018-08-06T02:14:39.329Z,100263.03
2018-08-06T02:17:05.417Z,100259.48
2018-08-06T02:19:31.531Z,100261.06
2018-08-06T02:21:57.611Z,100258.71
2018-08-06T02:24:23.726Z,100261.05
2018-08-06T02:26:49.873Z,100260.36
2018-08-06T02:29:16.013Z,100261.36
2018-08-06T02:31:42.094Z,100261.74
2018-08-06T02:34:08.206Z,100269.86
2018-08-06T02:36:34.276Z,100262.78
2018-08-06T02:39:00.368Z,100257.59
2018-08-06T02:41:26.414Z,100262.94
2018-08-06T02:43:52.543Z,100258.77
2018-08-06T02:46:18.714Z,100255.41
2018-08-06T02:48:44.873Z,100257.36
2018-08-06T02:51:10.945Z,100256.92
2018-08-06T02:53:42.558Z,100262.02
2018-08-06T02:56:08.634Z,100254.45
2018-08-06T02:58:34.745Z,100258.16
2018-08-06T03:01:00.882Z,100252.88
2018-08-06T03:03:27.008Z,100253.02
2018-08-06T03:05:53.109Z,100253.42
2018-08-06T03:08:19.133Z,100260.97
2018-08-06T03:10:45.227Z,100258.44
2018-08-06T03:25:48.926Z,100261.59
2018-08-06T03:28:14.979Z,100258.77
2018-08-06T03:30:41.134Z,100261.89
2018-08-06T03:33:07.257Z,100254.70
2018-08-06T03:35:33.373Z,100258.88
2018-08-06T03:37:59.509Z,100252.59
2018-08-06T03:40:25.681Z,100255.12
2018-08-06T03:42:51.805Z,100254.66
2018-08-06T03:45:17.958Z,100252.27
2018-08-06T03:47:44.070Z,100255.44
2018-08-06T03:50:10.178Z,100261.95
2018-08-06T03:52:37.162Z,100266.74
2018-08-06T03:55:03.242Z,100260.17
2018-08-06T03:57:29.328Z,100268.14
2018-08-06T04:02:28.525Z,100259.27
2018-08-06T04:04:54.591Z,100261.08
2018-08-06T04:07:20.656Z,100253.84
2018-08-06T04:09:46.740Z,100260.02
2018-08-06T04:12:12.782Z,100257.30
2018-08-06T04:14:38.909Z,100264.37
2018-08-06T04:17:04.988Z,100260.80
2018-08-06T04:19:31.034Z,100269.04
2018-08-06T04:21:57.099Z,100270.30
2018-08-06T04:24:23.193Z,100266.48
2018-08-06T04:26:49.242Z,100261.55
2018-08-06T04:29:15.270Z,100262.86
2018-08-06T04:31:41.344Z,100271.92
2018-08-06T04:34:07.447Z,100269.29
2018-08-06T04:36:33.565Z,100275.50
2018-08-06T04:38:59.731Z,100277.27
2018-08-06T04:41:25.863Z,100274.20
2018-08-06T04:43:52.011Z,100277.33
2018-08-06T04:46:18.093Z,100282.31
2018-08-06T04:48:44.127Z,100276.04
2018-08-06T04:51:10.226Z,100277.37
2018-08-06T04:53:36.318Z,100279.17
2018-08-06T04:56:02.405Z,100274.02
2018-08-06T04:58:28.548Z,100280.95
2018-08-06T05:00:54.633Z,100279.66
2018-08-06T05:03:20.711Z,100282.48
2018-08-06T05:05:46.793Z,100277.44
2018-08-06T05:08:12.861Z,100281.90
2018-08-06T05:10:38.946Z,100284.37
2018-08-06T05:13:05.041Z,100282.16
2018-08-06T05:15:31.124Z,100281.67
2018-08-06T05:17:57.216Z,100280.36
2018-08-06T05:20:23.285Z,100278.72
2018-08-06T05:22:49.352Z,100284.23
2018-08-06T05:25:15.446Z,100286.80
2018-08-06T05:27:41.539Z,100287.44
2018-08-06T05:30:07.670Z,100287.06
2018-08-06T05:32:33.805Z,100295.16
2018-08-06T05:34:59.871Z,100300.55
2018-08-06T05:37:26.032Z,100297.14
2018-08-06T05:39:52.144Z,100299.36
2018-08-06T05:42:18.154Z,100293.91
2018-08-06T05:44:44.234Z,100300.42
2018-08-06T05:47:10.407Z,100305.88
2018-08-06T05:49:36.492Z,100304.63
2018-08-06T05:52:02.636Z,100307.63
2018-08-06T05:54:28.766Z,100308.21
2018-08-06T05:56:54.861Z,100311.97
2018-08-06T05:59:21.002Z,100313.55
2018-08-06T06:01:47.216Z,100319.84
2018-08-06T06:04:13.326Z,100322.03
2018-08-06T06:06:39.605Z,100319.65
2018-08-06T06:09:05.675Z,100317.53
2018-08-06T06:11:31.802Z,100319.58
2018-08-06T06:13:57.969Z,100324.25
2018-08-06T06:16:24.097Z,100319.18
2018-08-06T06:18:50.210Z,100319.91
2018-08-06T06:21:16.396Z,100323.95
2018-08-06T06:23:42.492Z,100324.52
2018-08-06T06:26:08.725Z,100331.72
2018-08-06T06:28:34.848Z,100333.98
2018-08-06T06:31:00.918Z,100331.09
2018-08-06T06:38:32.060Z,100328.67
2018-08-06T06:40:58.163Z,100337.69
2018-08-06T06:43:24.339Z,100334.38
2018-08-06T06:45:51.100Z,100332.59
2018-08-06T06:48:18.831Z,100336.05
2018-08-06T06:50:45.349Z,100331.47
2018-08-06T06:53:11.809Z,100329.16
2018-08-06T06:55:38.543Z,100326.28
2018-08-06T06:58:05.651Z,100329.04
2018-08-06T07:00:31.931Z,100332.17
2018-08-06T07:02:58.351Z,100330.09
2018-08-06T07:05:24.663Z,100328.48
2018-08-06T07:07:50.962Z,100326.70
2018-08-06T07:10:17.226Z,100320.61
2018-08-06T07:12:43.412Z,100330.06
2018-08-06T07:15:09.484Z,100323.06
2018-08-06T07:35:18.278Z,100315.19
2018-08-06T07:47:51.482Z,100302.91
2018-08-06T07:50:17.721Z,100307.12
2018-08-06T07:52:43.985Z,100306.22
2018-08-06T07:55:10.199Z,100303.61
2018-08-06T07:57:36.348Z,100311.60
2018-08-06T08:00:03.429Z,100303.88
2018-08-06T08:02:29.596Z,100306.52
2018-08-06T08:04:55.964Z,100300.58
2018-08-06T08:07:22.181Z,100304.34
2018-08-06T08:09:48.306Z,100299.36
2018-08-06T08:12:15.178Z,100303.89
2018-08-06T08:14:41.258Z,100302.79
2018-08-06T08:17:07.412Z,100293.30
2018-08-06T08:19:33.562Z,100290.81
2018-08-06T08:21:59.635Z,100294.73
2018-08-06T08:24:25.776Z,100293.61
2018-08-06T08:26:51.869Z,100295.97
2018-08-06T08:29:18.019Z,100295.13
2018-08-06T08:31:44.138Z,100297.20
2018-08-06T08:34:10.199Z,100296.52
2018-08-06T09:01:49.753Z,100282.38
2018-08-06T09:04:16.545Z,100279.23
2018-08-06T09:06:42.565Z,100272.02
2018-08-06T09:09:08.629Z,100276.31
2018-08-06T09:11:34.753Z,100269.43
2018-08-06T09:14:00.866Z,100263.41
2018-08-06T09:16:27.072Z,100261.48
2018-08-06T09:18:53.222Z,100255.70
2018-08-06T09:21:19.370Z,100260.53
2018-08-06T09:23:45.556Z,100253.02
2018-08-06T09:26:11.750Z,100252.66
2018-08-06T09:28:38.554Z,100246.50
2018-08-06T09:31:05.309Z,100251.14
2018-08-06T09:33:31.768Z,100245.11
2018-08-06T09:35:58.619Z,100240.09
2018-08-06T09:38:25.108Z,100231.77
2018-08-06T09:40:51.435Z,100238.73
2018-08-06T09:43:17.832Z,100244.37
2018-08-06T09:45:45.108Z,100238.66
2018-08-06T09:48:11.587Z,100232.61
2018-08-06T09:50:37.871Z,100235.58
2018-08-06T09:53:04.583Z,100230.98
2018-08-06T09:55:31.485Z,100229.90
2018-08-06T09:57:57.960Z,100223.63
2018-08-06T10:00:25.093Z,100230.31
2018-08-06T10:02:51.896Z,100227.23
2018-08-06T10:05:18.345Z,100219.08
2018-08-06T10:07:45.233Z,100225.50
2018-08-06T10:10:11.819Z,100217.50
2018-08-06T10:12:38.294Z,100213.26
2018-08-06T10:15:04.990Z,100208.19
2018-08-06T10:17:31.256Z,100205.84
2018-08-06T10:19:57.909Z,100198.34
2018-08-06T10:22:24.066Z,100209.23
2018-08-06T10:24:50.409Z,100196.34
2018-08-06T10:27:16.739Z,100173.71
2018-08-06T10:29:42.922Z,100188.67
2018-08-06T10:32:09.142Z,100187.62
2018-08-06T10:34:36.648Z,100187.02
2018-08-06T10:37:02.875Z,100180.44
2018-08-06T10:39:29.186Z,100186.37
2018-08-06T10:41:55.731Z,100183.92
2018-08-06T10:44:21.952Z,100181.08
2018-08-06T10:46:48.176Z,100180.81
2018-08-06T10:49:14.500Z,100180.77
2018-08-06T10:51:40.765Z,100176.82
2018-08-06T10:54:07.218Z,100173.58
2018-08-06T10:56:33.458Z,100170.99
2018-08-06T10:58:59.570Z,100169.34
2018-08-06T11:01:25.656Z,100164.16
2018-08-06T11:03:51.768Z,100165.55
2018-08-06T11:06:19.015Z,100165.44
2018-08-06T11:08:45.960Z,100167.52
2018-08-06T11:11:12.312Z,100163.30
2018-08-06T11:13:38.426Z,100164.52
2018-08-06T11:16:04.556Z,100159.00
2018-08-06T11:18:30.654Z,100157.82
2018-08-06T11:20:56.812Z,100150.52
2018-08-06T11:23:22.943Z,100153.31
2018-08-06T11:25:49.054Z,100144.88
2018-08-06T11:28:15.215Z,100142.77
2018-08-06T11:30:41.374Z,100135.70
2018-08-06T11:33:08.537Z,100124.87
2018-08-06T11:35:34.740Z,100127.84
2018-08-06T11:38:01.589Z,100123.60
2018-08-06T11:40:27.733Z,100121.73
2018-08-06T11:42:53.903Z,100117.95
2018-08-06T11:45:20.014Z,100119.26
2018-08-06T11:47:46.463Z,100119.78
2018-08-06T11:50:12.575Z,100112.16
2018-08-06T11:52:38.681Z,100112.05
2018-08-06T11:55:04.859Z,100105.89
2018-08-06T11:57:30.955Z,100107.53
2018-08-06T11:59:57.112Z,100099.70
2018-08-06T12:02:23.204Z,100101.05
2018-08-06T12:04:49.451Z,100096.00
2018-08-06T12:07:15.938Z,100096.03
2018-08-06T12:09:42.038Z,100094.68
2018-08-06T12:12:08.165Z,100091.80
2018-08-06T12:14:34.339Z,100089.09
2018-08-06T12:17:01.082Z,100084.13
2018-08-06T12:19:27.599Z,100084.13
2018-08-06T12:21:53.714Z,100088.03
2018-08-06T12:24:21.022Z,100082.70
2018-08-06T12:26:47.958Z,100078.63
2018-08-06T12:29:14.926Z,100077.05
2018-08-06T12:31:42.264Z,100074.79
2018-08-06T12:49:17.193Z,100059.11
2018-08-06T12:51:43.395Z,100054.85
2018-08-06T12:54:09.934Z,100054.72
2018-08-06T12:56:36.193Z,100052.41
2018-08-06T12:59:03.330Z,100040.73
2018-08-06T13:01:30.491Z,100040.78
2018-08-06T13:03:57.254Z,100038.84
2018-08-06T13:06:23.985Z,100034.38
2018-08-06T13:08:50.350Z,100036.03
2018-08-06T13:11:16.717Z,100024.59
2018-08-06T13:13:42.901Z,100028.54
2018-08-06T13:16:09.037Z,100024.86
2018-08-06T13:18:36.571Z,100025.02
2018-08-06T13:21:02.703Z,100021.52
2018-08-06T13:23:29.862Z,100015.29
2018-08-06T13:25:56.116Z,100010.99
2018-08-06T13:28:22.306Z,100009.85
2018-08-06T13:30:48.604Z,100007.97
2018-08-06T13:48:26.893Z,99986.42
2018-08-06T13:50:52.975Z,99990.98
2018-08-06T13:53:19.091Z,99993.75
2018-08-06T13:55:45.542Z,99989.05
2018-08-06T13:58:11.739Z,99985.08
2018-08-06T14:00:38.106Z,99988.40
2018-08-06T14:03:04.289Z,99974.45
2018-08-06T14:05:30.835Z,99974.55
2018-08-06T14:07:56.898Z,99972.52
2018-08-06T14:10:22.970Z,99972.30
2018-08-06T14:12:49.054Z,99962.28
2018-08-06T14:15:15.095Z,99964.41
2018-08-06T14:17:41.179Z,99962.55
2018-08-06T14:20:07.209Z,99952.91
2018-08-06T14:22:33.319Z,99954.90
2018-08-06T14:24:59.470Z,99953.86
2018-08-06T14:27:25.549Z,99949.72
2018-08-06T14:29:51.751Z,99945.38
2018-08-06T14:32:17.856Z,99941.36
2018-08-06T14:34:43.963Z,99929.92
2018-08-06T14:37:10.081Z,99933.59
2018-08-06T14:39:36.133Z,99934.59
2018-08-06T14:42:02.212Z,99926.41
2018-08-06T14:44:28.369Z,99925.23
2018-08-06T14:46:54.454Z,99919.41
2018-08-06T14:49:20.585Z,99912.27
2018-08-06T14:51:46.704Z,99917.66
2018-08-06T14:54:12.847Z,99919.14
2018-08-06T14:56:38.917Z,99917.95
2018-08-06T14:59:04.959Z,99911.62
2018-08-06T15:01:30.998Z,99912.42
2018-08-06T15:03:57.045Z,99910.23
2018-08-06T15:06:23.087Z,99908.09
2018-08-06T15:08:49.270Z,99903.31
2018-08-06T15:11:15.502Z,99912.80
2018-08-06T15:13:41.720Z,99900.88
2018-08-06T15:16:07.838Z,99892.25
2018-08-06T15:18:33.924Z,99896.88
2018-08-06T15:21:00.050Z,99891.77
2018-08-06T15:23:26.177Z,99887.11
2018-08-06T15:25:52.375Z,99881.41
2018-08-06T15:28:18.482Z,99876.14
2018-08-06T15:30:44.584Z,99873.44
2018-08-06T15:33:10.806Z,99877.11
2018-08-06T15:35:36.903Z,99869.11
2018-08-06T15:38:03.162Z,99866.35
2018-08-06T15:40:29.356Z,99863.66
2018-08-06T15:42:55.386Z,99855.91
2018-08-06T15:45:21.452Z,99854.84
2018-08-06T15:47:48.446Z,99856.14
2018-08-06T15:50:14.556Z,99852.02
2018-08-06T15:52:40.619Z,99844.57
2018-08-06T15:55:06.779Z,99801.64
2018-08-06T15:57:32.810Z,99844.81
2018-08-06T16:02:31.299Z,99839.13
2018-08-06T16:04:57.402Z,99843.06
2018-08-06T16:07:23.740Z,99840.59
2018-08-06T16:09:49.952Z,99832.87
2018-08-06T16:12:16.123Z,99826.63
2018-08-06T16:14:42.445Z,99822.44
2018-08-06T16:17:08.567Z,99817.78
2018-08-06T16:19:34.711Z,99814.97
2018-08-06T16:22:01.198Z,99809.53
2018-08-06T16:24:27.328Z,99814.25
2018-08-06T16:26:53.450Z,99810.00
2018-08-06T16:29:19.485Z,99807.66
2018-08-06T16:31:46.236Z,99808.25
2018-08-06T16:34:12.266Z,99811.50
2018-08-06T16:36:38.320Z,99807.61
2018-08-06T16:39:04.353Z,99813.17
2018-08-06T16:41:30.432Z,99804.23
2018-08-06T16:43:56.474Z,99803.28
2018-08-06T16:46:22.606Z,99800.08
2018-08-06T16:48:48.645Z,99801.30
2018-08-06T16:51:14.667Z,99808.77
2018-08-06T16:53:40.688Z,99802.11
2018-08-06T16:56:06.772Z,99799.16
2018-08-06T16:58:32.816Z,99797.49
2018-08-06T17:00:59.019Z,99790.28
2018-08-06T17:03:24.975Z,99800.00
2018-08-06T17:05:51.033Z,99740.94
2018-08-06T17:08:17.158Z,99799.66
2018-08-06T17:10:43.226Z,99792.91
2018-08-06T17:13:09.344Z,99788.56
2018-08-06T17:15:35.440Z,99793.88
2018-08-06T17:18:01.523Z,99793.03
2018-08-06T17:20:28.631Z,99792.61
2018-08-06T17:22:54.686Z,99786.46
2018-08-06T17:25:20.750Z,99787.19
2018-08-06T17:27:46.861Z,99785.70
2018-08-06T17:50:23.217Z,99792.42
2018-08-06T17:52:49.343Z,99791.95
2018-08-06T17:55:15.456Z,99786.34
2018-08-06T17:57:41.519Z,99790.74
2018-08-06T18:00:07.623Z,99794.52
2018-08-06T18:02:33.714Z,99794.86
2018-08-06T18:04:59.783Z,99798.66
2018-08-06T18:07:25.898Z,99799.33
2018-08-06T18:09:51.970Z,99798.08
2018-08-06T18:12:18.032Z,99798.39
2018-08-06T18:17:18.211Z,99797.44
2018-08-06T18:24:50.815Z,99795.70
2018-08-06T18:27:16.916Z,99799.27
2018-08-06T18:29:43.011Z,99790.72
2018-08-06T18:34:41.426Z,99799.92
2018-08-06T18:37:07.554Z,99794.98
2018-08-06T18:39:33.664Z,99802.19
2018-08-06T18:41:59.825Z,99800.27
2018-08-06T18:46:58.288Z,99804.44
2018-08-06T18:49:24.375Z,99794.67
2018-08-06T18:51:50.425Z,99807.06
2018-08-06T18:54:16.518Z,99807.25
2018-08-06T18:56:42.685Z,99809.52
2018-08-06T18:59:08.775Z,99813.73
2018-08-06T19:01:34.919Z,99820.33
2018-08-06T19:04:01.015Z,99822.70
2018-08-06T19:06:27.060Z,99822.52
2018-08-06T19:08:53.176Z,99823.52
2018-08-06T19:28:59.139Z,99828.27
2018-08-06T19:33:56.988Z,99827.77
2018-08-06T19:36:28.873Z,99824.22
2018-08-06T19:38:55.028Z,99831.30
2018-08-06T19:41:21.063Z,99828.00
2018-08-06T19:43:47.117Z,99829.80
2018-08-06T19:46:13.196Z,99827.97
2018-08-06T20:06:18.545Z,99842.63
2018-08-06T20:28:56.338Z,99837.22
2018-08-06T20:31:22.410Z,99838.14
2018-08-06T20:33:48.466Z,99837.16
2018-08-06T20:38:49.278Z,99840.61
2018-08-06T20:41:15.298Z,99841.06
2018-08-06T20:43:41.313Z,99839.47
2018-08-06T20:46:07.386Z,99845.97
2018-08-06T20:48:33.511Z,99838.08
2018-08-06T20:50:59.504Z,99845.24
2018-08-06T20:53:25.548Z,99848.21
2018-08-06T20:55:51.665Z,99843.63
2018-08-06T21:31:07.878Z,99836.62
2018-08-06T21:33:34.052Z,99839.99
2018-08-06T21:36:00.141Z,99840.73
2018-08-06T21:38:26.195Z,99838.08
2018-08-06T21:40:52.315Z,99838.97
2018-08-06T21:43:18.476Z,99833.67
2018-08-06T21:45:44.604Z,99839.92
2018-08-06T21:48:10.633Z,99838.55
2018-08-06T21:50:36.824Z,99839.39
2018-08-06T21:53:02.827Z,99833.94
2018-08-06T21:55:29.043Z,99835.03
2018-08-06T21:57:55.100Z,99831.80
